📊 Raw Sensor Data

Showing records 49001 to 49025 of 85,111 total

ID Distance (ft) Battery V Battery A Int Temp (°F) Int Humid (%) Ext Temp (°F) Solar V RSSI SNR Time Stamp
36123 -- 4.04 0 61 44 57 5.10 -83 9 03/27/2025 02:30 PM
36122 -- 4.05 0 65 43 63 5.10 -84 8 03/27/2025 02:15 PM
36121 -- 4.12 0 68 42 67 5.10 -80 7 03/27/2025 02:00 PM
36120 -- 4.04 0 68 42 66 5.10 -78 8 03/27/2025 01:45 PM
36119 -- 4.05 -5 56 44 57 0.00 -82 8 03/26/2025 08:15 PM
36118 -- 3.99 -5 56 45 57 0.00 -82 7 03/26/2025 08:00 PM
36117 -- 4.00 -5 59 46 58 1.10 -82 8 03/26/2025 07:30 PM
36116 -- 3.99 -10 62 46 59 3.10 -81 8 03/26/2025 07:15 PM
36115 -- 4.01 0 66 44 61 4.50 -79 8 03/26/2025 07:00 PM
36114 -- 4.08 0 68 43 62 4.50 -80 7 03/26/2025 06:45 PM
36113 -- 4.10 0 69 43 62 4.50 -82 8 03/26/2025 06:30 PM
36112 -- 4.08 31 71 42 63 4.50 -80 8 03/26/2025 06:15 PM
36111 -- 4.10 36 72 42 65 4.50 -81 7 03/26/2025 06:01 PM
36110 -- 4.03 0 72 42 65 5.10 -81 8 03/26/2025 05:45 PM
36109 -- 4.03 0 73 41 65 5.10 -84 8 03/26/2025 05:30 PM
36108 -- 4.09 0 74 41 65 5.10 -82 8 03/26/2025 05:15 PM
36107 -- 4.03 0 75 41 66 5.10 -86 7 03/26/2025 05:00 PM
36106 -- 4.03 0 75 40 66 5.10 -82 9 03/26/2025 04:46 PM
36105 -- 4.03 0 76 40 66 5.10 -82 8 03/26/2025 04:30 PM
36104 -- 4.15 0 76 39 68 5.10 -83 8 03/26/2025 04:15 PM
36103 -- 4.05 0 76 39 69 5.10 -80 8 03/26/2025 04:00 PM
36102 -- 4.03 0 75 39 68 5.10 -82 9 03/26/2025 03:45 PM
36101 -- 4.03 0 73 40 69 5.10 -79 8 03/26/2025 03:30 PM
36100 -- 4.03 0 74 40 65 5.10 -80 7 03/26/2025 03:15 PM
36099 -- 4.03 0 75 39 67 5.10 -83 8 03/26/2025 03:00 PM